createdAt,value
2023-04-04T00:00:22.998Z,1.10
2023-04-04T00:01:54.946Z,1.27
2023-04-04T00:03:27.772Z,1.13
2023-04-04T00:04:59.650Z,1.20
2023-04-04T00:06:31.550Z,0.90
2023-04-04T00:08:04.005Z,0.90
2023-04-04T00:09:36.198Z,0.95
2023-04-04T00:11:08.050Z,1.13
2023-04-04T00:12:39.882Z,1.10
2023-04-04T00:14:11.840Z,1.15
2023-04-04T00:15:43.636Z,1.00
2023-04-04T00:17:15.438Z,1.13
2023-04-04T00:18:47.225Z,1.20
2023-04-04T00:20:19.045Z,1.08
2023-04-04T00:21:51.216Z,0.90
2023-04-04T00:23:23.042Z,1.30
2023-04-04T00:24:54.943Z,1.20
2023-04-04T00:26:26.938Z,1.20
2023-04-04T00:28:01.302Z,1.25
2023-04-04T00:29:34.670Z,1.20
2023-04-04T00:31:07.770Z,0.95
2023-04-04T00:32:39.894Z,0.82
2023-04-04T00:34:11.877Z,1.25
2023-04-04T00:35:43.705Z,1.20
2023-04-04T00:37:15.894Z,0.95
2023-04-04T00:38:47.760Z,0.85
2023-04-04T00:40:19.856Z,1.30
2023-04-04T00:41:51.786Z,1.00
2023-04-04T00:43:23.737Z,0.93
2023-04-04T00:44:55.998Z,0.98
2023-04-04T00:46:29.542Z,1.00
2023-04-04T00:48:03.503Z,1.05
2023-04-04T00:49:35.802Z,1.20
2023-04-04T00:51:07.856Z,1.15
2023-04-04T00:52:39.764Z,1.08
2023-04-04T00:54:11.820Z,0.90
2023-04-04T00:55:44.063Z,1.10
2023-04-04T00:57:16.931Z,1.20
2023-04-04T00:58:48.874Z,0.98
2023-04-04T01:00:21.146Z,1.05
2023-04-04T01:01:52.996Z,0.82
2023-04-04T01:03:25.160Z,1.00
2023-04-04T01:04:57.026Z,0.95
2023-04-04T01:06:30.703Z,1.00
2023-04-04T01:08:02.756Z,1.02
2023-04-04T01:09:35.223Z,1.30
2023-04-04T01:11:07.492Z,0.90
2023-04-04T01:12:39.871Z,0.95
2023-04-04T01:14:11.899Z,0.95
2023-04-04T01:15:45.169Z,0.90
2023-04-04T01:17:17.327Z,1.00
2023-04-04T01:18:51.151Z,1.08
2023-04-04T01:20:26.984Z,0.80
2023-04-04T01:22:02.886Z,1.00
2023-04-04T01:24:11.556Z,1.10
2023-04-04T01:25:49.229Z,1.23
2023-04-04T01:27:21.779Z,1.20
2023-04-04T01:29:00.829Z,1.02
2023-04-04T01:30:36.007Z,1.23
2023-04-04T01:32:20.484Z,1.10
2023-04-04T01:34:05.197Z,1.20
2023-04-04T01:35:44.220Z,1.20
2023-04-04T01:37:28.264Z,0.80
2023-04-04T01:39:25.014Z,0.98
2023-04-04T01:41:02.892Z,1.00
2023-04-04T01:42:38.982Z,0.90
2023-04-04T01:44:11.720Z,1.05
2023-04-04T01:45:43.834Z,1.13
2023-04-04T01:47:18.040Z,0.88
2023-04-04T01:48:49.878Z,0.90
2023-04-04T01:50:26.787Z,1.00
2023-04-04T01:51:58.809Z,0.90
2023-04-04T01:53:31.513Z,1.13
2023-04-04T01:55:03.963Z,0.80
2023-04-04T01:56:36.180Z,1.23
2023-04-04T01:58:08.604Z,0.85
2023-04-04T01:59:40.607Z,1.13
2023-04-04T02:01:12.979Z,0.90
2023-04-04T02:02:44.958Z,1.13
2023-04-04T02:04:17.374Z,1.00
2023-04-04T02:05:49.613Z,1.08
2023-04-04T02:07:21.476Z,1.00
2023-04-04T02:08:53.959Z,0.80
2023-04-04T02:10:26.040Z,0.80
2023-04-04T02:11:57.874Z,0.80
2023-04-04T02:13:29.718Z,1.08
2023-04-04T02:15:03.840Z,0.95
2023-04-04T02:16:35.721Z,1.10
2023-04-04T02:18:07.586Z,1.00
2023-04-04T02:19:39.526Z,1.13
2023-04-04T02:21:11.334Z,1.20
2023-04-04T02:22:43.127Z,1.08
2023-04-04T02:24:14.975Z,1.40
2023-04-04T02:25:46.792Z,1.10
2023-04-04T02:27:18.586Z,1.00
2023-04-04T02:28:50.410Z,1.10
2023-04-04T02:30:22.220Z,1.15
2023-04-04T02:31:55.424Z,1.13
2023-04-04T02:33:27.359Z,1.10
2023-04-04T02:34:59.540Z,1.10
2023-04-04T02:36:31.622Z,1.02
2023-04-04T02:38:03.752Z,1.08
2023-04-04T02:39:43.884Z,0.85
2023-04-04T02:41:15.719Z,0.82
2023-04-04T02:42:47.564Z,0.80
2023-04-04T02:44:19.586Z,1.10
2023-04-04T02:45:53.895Z,1.13
2023-04-04T02:47:28.805Z,1.00
2023-04-04T02:49:02.153Z,1.10
2023-04-04T02:50:34.863Z,1.23
2023-04-04T02:52:08.450Z,1.08
2023-04-04T02:53:44.494Z,0.90
2023-04-04T02:55:27.262Z,1.00
2023-04-04T02:56:59.164Z,1.00
2023-04-04T02:58:34.941Z,0.98
2023-04-04T03:00:07.656Z,0.70
2023-04-04T03:01:40.054Z,0.90
2023-04-04T03:03:12.090Z,0.75
2023-04-04T03:04:48.638Z,0.90
2023-04-04T03:06:20.488Z,1.00
2023-04-04T03:07:58.382Z,0.93
2023-04-04T03:09:31.582Z,0.90
2023-04-04T03:11:03.560Z,1.20
2023-04-04T03:12:35.656Z,1.05
2023-04-04T03:14:08.542Z,1.20
2023-04-04T03:15:44.095Z,1.02
2023-04-04T03:17:20.424Z,0.95
2023-04-04T03:18:52.315Z,1.45
2023-04-04T03:20:26.605Z,1.40
2023-04-04T03:21:58.416Z,1.20
2023-04-04T03:23:30.227Z,1.25
2023-04-04T03:25:03.743Z,1.10
2023-04-04T03:26:35.570Z,1.08
2023-04-04T03:28:10.139Z,1.50
2023-04-04T03:29:42.393Z,1.05
2023-04-04T03:31:15.209Z,1.10
2023-04-04T03:32:47.906Z,1.00
2023-04-04T03:34:19.848Z,1.02
2023-04-04T03:35:51.664Z,1.05
2023-04-04T03:37:23.840Z,1.00
2023-04-04T03:38:55.791Z,1.45
2023-04-04T03:40:27.720Z,1.20
2023-04-04T03:41:59.519Z,1.10
2023-04-04T03:43:32.781Z,1.00
2023-04-04T03:45:04.777Z,1.60
2023-04-04T03:46:38.658Z,1.40
2023-04-04T03:48:11.448Z,1.20
2023-04-04T03:49:44.866Z,1.15
2023-04-04T03:51:23.847Z,1.23
2023-04-04T03:52:55.693Z,1.20
2023-04-04T03:54:28.469Z,1.35
2023-04-04T03:56:00.641Z,1.15
2023-04-04T03:57:32.922Z,1.20
2023-04-04T03:59:04.877Z,1.38
2023-04-04T04:00:36.703Z,1.13
2023-04-04T04:02:08.600Z,1.35
2023-04-04T04:03:40.673Z,1.20
2023-04-04T04:05:12.818Z,1.10
2023-04-04T04:06:44.608Z,1.02
2023-04-04T04:08:16.777Z,1.77
2023-04-04T04:09:48.574Z,1.20
2023-04-04T04:11:20.351Z,1.30
2023-04-04T04:12:52.175Z,1.65
2023-04-04T04:14:23.975Z,1.10
2023-04-04T04:15:57.435Z,1.33
2023-04-04T04:17:29.851Z,1.10
2023-04-04T04:19:02.606Z,1.42
2023-04-04T04:20:42.797Z,1.10
2023-04-04T04:22:14.844Z,1.20
2023-04-04T04:23:48.635Z,1.42
2023-04-04T04:25:20.637Z,1.20
2023-04-04T04:27:08.302Z,1.20
2023-04-04T04:28:41.044Z,1.27
2023-04-04T04:30:17.606Z,1.50
2023-04-04T04:31:52.632Z,1.05
2023-04-04T04:33:31.979Z,1.30
2023-04-04T04:35:08.952Z,1.13
2023-04-04T04:36:42.892Z,1.23
2023-04-04T04:38:28.911Z,1.42
2023-04-04T04:40:02.092Z,1.33
2023-04-04T04:42:03.488Z,1.20
2023-04-04T04:43:37.161Z,1.50
2023-04-04T04:45:09.458Z,1.48
2023-04-04T04:46:43.418Z,1.08
2023-04-04T04:48:19.573Z,1.00
2023-04-04T04:49:55.749Z,1.42
2023-04-04T04:51:39.024Z,1.55
2023-04-04T04:53:11.668Z,1.77
2023-04-04T04:54:44.023Z,1.38
2023-04-04T04:56:15.868Z,1.30
2023-04-04T04:57:49.589Z,1.60
2023-04-04T04:59:26.537Z,1.20
2023-04-04T05:01:01.769Z,1.30
2023-04-04T05:02:41.177Z,1.10
2023-04-04T05:04:13.571Z,1.17
2023-04-04T05:05:53.623Z,1.20
2023-04-04T05:07:25.496Z,1.50
2023-04-04T05:08:58.766Z,1.30
2023-04-04T05:10:39.385Z,0.97
2023-04-04T05:12:12.933Z,1.30
2023-04-04T05:13:49.294Z,1.20
2023-04-04T05:15:22.640Z,1.30
2023-04-04T05:16:56.868Z,1.58
2023-04-04T05:18:33.393Z,1.33
2023-04-04T05:20:06.196Z,1.58
2023-04-04T05:21:38.296Z,1.20
2023-04-04T05:23:13.300Z,1.60
2023-04-04T05:24:47.170Z,1.45
2023-04-04T05:26:21.634Z,1.42
2023-04-04T05:27:57.858Z,1.50
2023-04-04T05:29:29.869Z,1.40
2023-04-04T05:31:02.445Z,1.45
2023-04-04T05:32:36.687Z,1.30
2023-04-04T05:34:14.430Z,1.30
2023-04-04T05:35:46.924Z,1.33
2023-04-04T05:37:20.133Z,1.20
2023-04-04T05:38:54.288Z,1.55
2023-04-04T05:40:29.495Z,1.77
2023-04-04T05:42:10.834Z,1.60
2023-04-04T05:43:48.204Z,1.38
2023-04-04T05:45:23.485Z,1.70
2023-04-04T05:46:55.323Z,1.80
2023-04-04T05:48:27.129Z,1.77
2023-04-04T05:49:59.236Z,2.10
2023-04-04T05:51:31.140Z,1.67
2023-04-04T05:53:12.231Z,1.63
2023-04-04T05:54:51.550Z,1.63
2023-04-04T05:56:31.116Z,1.63
2023-04-04T05:58:04.355Z,1.55
2023-04-04T05:59:47.977Z,1.70
2023-04-04T06:01:21.365Z,1.58
2023-04-04T06:02:58.758Z,1.33
2023-04-04T06:04:30.868Z,1.88
2023-04-04T06:06:05.657Z,1.90
2023-04-04T06:07:38.801Z,2.08
2023-04-04T06:09:10.631Z,1.77
2023-04-04T06:10:42.510Z,1.80
2023-04-04T06:12:14.327Z,2.00
2023-04-04T06:13:46.690Z,1.60
2023-04-04T06:15:21.662Z,1.70
2023-04-04T06:16:53.455Z,1.98
2023-04-04T06:18:25.297Z,1.83
2023-04-04T06:19:57.223Z,1.75
2023-04-04T06:21:29.019Z,1.55
2023-04-04T06:23:04.713Z,1.52
2023-04-04T06:24:38.633Z,1.55
2023-04-04T06:26:10.933Z,2.05
2023-04-04T06:27:44.925Z,1.60
2023-04-04T06:29:16.906Z,1.73
2023-04-04T06:30:49.689Z,1.50
2023-04-04T06:32:32.178Z,1.40
2023-04-04T06:34:04.088Z,1.70
2023-04-04T06:35:40.613Z,1.50
2023-04-04T06:37:13.148Z,1.70
2023-04-04T06:38:53.348Z,1.40
2023-04-04T06:40:27.212Z,1.98
2023-04-04T06:41:59.548Z,2.30
2023-04-04T06:43:34.577Z,2.10
2023-04-04T06:45:06.950Z,2.15
2023-04-04T06:46:39.394Z,1.98
2023-04-04T06:48:11.265Z,2.30
2023-04-04T06:49:43.381Z,1.95
2023-04-04T06:51:16.248Z,1.90
2023-04-04T06:52:50.446Z,2.25
2023-04-04T06:54:22.340Z,2.80
2023-04-04T06:55:54.322Z,2.90
2023-04-04T06:57:27.211Z,2.42
2023-04-04T06:58:59.087Z,2.40
2023-04-04T07:00:30.993Z,2.08
2023-04-04T07:02:02.804Z,1.98
2023-04-04T07:03:34.802Z,1.90
2023-04-04T07:05:07.246Z,1.73
2023-04-04T07:06:39.062Z,1.70
2023-04-04T07:08:11.788Z,2.53
2023-04-04T07:09:43.800Z,1.85
2023-04-04T07:11:15.744Z,2.22
2023-04-04T07:12:47.575Z,2.05
2023-04-04T07:14:20.950Z,1.90
2023-04-04T07:15:52.913Z,1.77
2023-04-04T07:17:25.645Z,1.90
2023-04-04T07:18:57.598Z,1.80
2023-04-04T07:20:29.439Z,1.92
2023-04-04T07:22:01.221Z,1.67
2023-04-04T07:23:33.015Z,1.70
2023-04-04T07:25:05.086Z,2.10
2023-04-04T07:26:36.993Z,1.95
2023-04-04T07:28:12.912Z,3.03
2023-04-04T07:29:45.388Z,2.97
2023-04-04T07:31:17.338Z,2.60
2023-04-04T07:32:57.696Z,2.30
2023-04-04T07:34:30.109Z,2.53
2023-04-04T07:36:03.447Z,2.80
2023-04-04T07:37:38.480Z,2.13
2023-04-04T07:39:10.397Z,1.90
2023-04-04T07:40:42.588Z,1.73
2023-04-04T07:42:15.120Z,1.58
2023-04-04T07:43:47.418Z,2.53
2023-04-04T07:45:19.342Z,2.22
2023-04-04T07:47:02.440Z,2.10
2023-04-04T07:48:40.900Z,1.92
2023-04-04T07:50:13.529Z,2.20
2023-04-04T07:51:45.665Z,1.80
2023-04-04T07:53:17.507Z,2.08
2023-04-04T07:54:49.544Z,2.10
2023-04-04T07:56:22.036Z,2.20
2023-04-04T07:57:53.848Z,2.20
2023-04-04T07:59:25.815Z,2.08
2023-04-04T08:00:57.785Z,1.67
2023-04-04T08:02:29.706Z,1.83
2023-04-04T08:04:01.753Z,1.70
2023-04-04T08:05:34.042Z,1.70
2023-04-04T08:07:05.826Z,1.70
2023-04-04T08:08:37.696Z,1.70
2023-04-04T08:10:09.996Z,1.65
2023-04-04T08:11:41.779Z,1.65
2023-04-04T08:13:13.656Z,1.50
2023-04-04T08:14:45.457Z,1.40
2023-04-04T08:16:17.859Z,1.20
2023-04-04T08:17:50.383Z,1.25
2023-04-04T08:19:23.002Z,1.08
2023-04-04T08:20:54.782Z,1.08
2023-04-04T08:22:27.289Z,1.33
2023-04-04T08:23:59.073Z,1.48
2023-04-04T08:25:30.856Z,1.02
2023-04-04T08:27:05.573Z,1.17
2023-04-04T08:28:38.647Z,1.20
2023-04-04T08:30:11.186Z,1.20
2023-04-04T08:31:43.472Z,0.88
2023-04-04T08:33:15.304Z,0.70
2023-04-04T08:34:47.337Z,0.90
2023-04-04T08:36:19.952Z,0.80
2023-04-04T08:37:52.251Z,0.63
2023-04-04T08:39:24.079Z,1.13
2023-04-04T08:40:55.899Z,0.60
2023-04-04T08:42:30.362Z,0.70
2023-04-04T08:44:04.497Z,1.10
2023-04-04T08:45:36.657Z,1.40
2023-04-04T08:47:10.962Z,1.02
2023-04-04T08:48:44.947Z,1.00
2023-04-04T08:50:17.969Z,1.10
2023-04-04T08:53:49.508Z,0.80
2023-04-04T08:55:21.609Z,0.80
2023-04-04T08:56:53.497Z,0.90
2023-04-04T08:58:25.384Z,1.02
2023-04-04T08:59:57.936Z,1.20
2023-04-04T09:01:29.984Z,0.63
2023-04-04T09:03:20.320Z,0.60
2023-04-04T09:05:05.653Z,0.70
2023-04-04T09:06:39.318Z,0.60
2023-04-04T09:08:12.641Z,0.70
2023-04-04T09:09:47.980Z,0.80
2023-04-04T09:11:21.686Z,0.93
2023-04-04T09:12:57.313Z,0.90
2023-04-04T09:14:37.530Z,0.80
2023-04-04T09:16:09.453Z,0.68
2023-04-04T09:17:41.833Z,1.08
2023-04-04T09:19:13.661Z,1.25
2023-04-04T09:20:46.907Z,0.80
2023-04-04T09:22:19.610Z,0.77
2023-04-04T09:24:01.385Z,0.80
2023-04-04T09:25:33.331Z,1.05
2023-04-04T09:27:05.106Z,0.90
2023-04-04T09:28:37.015Z,0.70
2023-04-04T09:30:09.666Z,0.73
2023-04-04T09:31:46.878Z,1.05
2023-04-04T09:33:21.908Z,0.70
2023-04-04T09:34:54.748Z,0.90
2023-04-04T09:36:27.302Z,0.70
2023-04-04T09:37:59.650Z,0.80
2023-04-04T09:39:32.792Z,0.70
2023-04-04T09:41:09.963Z,0.70
2023-04-04T09:42:42.431Z,0.65
2023-04-04T09:44:14.297Z,0.70
2023-04-04T09:45:47.642Z,0.68
2023-04-04T09:49:01.505Z,0.90
2023-04-04T09:50:33.905Z,0.82
2023-04-04T09:52:06.197Z,0.60
2023-04-04T09:53:39.911Z,0.80
2023-04-04T09:55:11.695Z,0.85
2023-04-04T09:56:45.096Z,0.77
2023-04-04T09:58:18.753Z,0.77
2023-04-04T09:59:50.839Z,0.77
2023-04-04T10:01:24.042Z,0.50
2023-04-04T10:02:58.521Z,0.70
2023-04-04T10:04:32.481Z,0.70
2023-04-04T10:06:07.366Z,0.73
2023-04-04T10:07:40.665Z,0.70
2023-04-04T10:09:12.730Z,0.68
2023-04-04T10:11:09.475Z,0.68
2023-04-04T10:12:46.359Z,0.63
2023-04-04T10:14:18.528Z,0.80
2023-04-04T10:15:51.624Z,0.60
2023-04-04T10:17:25.485Z,0.40
2023-04-04T10:18:58.779Z,0.60
2023-04-04T10:20:32.236Z,0.65
2023-04-04T10:22:05.867Z,0.63
2023-04-04T10:23:38.793Z,0.65
2023-04-04T10:25:10.880Z,0.60
2023-04-04T10:26:42.719Z,0.40
2023-04-04T10:28:14.595Z,0.40
2023-04-04T10:29:46.817Z,0.60
2023-04-04T10:31:26.209Z,0.80
2023-04-04T10:33:06.952Z,0.80
2023-04-04T10:34:54.089Z,0.70
2023-04-04T10:36:38.641Z,0.70
2023-04-04T10:38:11.152Z,0.70
2023-04-04T10:39:56.457Z,0.90
2023-04-04T10:41:31.780Z,0.50
2023-04-04T10:43:05.530Z,0.60
2023-04-04T10:44:40.585Z,0.80
2023-04-04T10:46:16.258Z,0.60
2023-04-04T10:47:48.756Z,0.63
2023-04-04T10:49:22.692Z,0.70
2023-04-04T10:50:56.357Z,0.52
2023-04-04T10:52:29.962Z,0.73
2023-04-04T10:54:02.406Z,0.90
2023-04-04T10:55:35.675Z,0.80
2023-04-04T10:57:07.793Z,0.60
2023-04-04T10:58:41.992Z,0.50
2023-04-04T11:00:23.642Z,0.70
2023-04-04T11:02:00.453Z,0.80
2023-04-04T11:03:34.231Z,0.80
2023-04-04T11:05:26.893Z,0.40
2023-04-04T11:07:16.467Z,0.60
2023-04-04T11:08:56.319Z,0.77
2023-04-04T11:10:29.920Z,0.70
2023-04-04T11:12:08.766Z,0.73
2023-04-04T11:13:41.740Z,0.70
2023-04-04T11:15:14.832Z,0.60
2023-04-04T11:16:47.158Z,0.90
2023-04-04T11:18:33.358Z,0.60
2023-04-04T11:20:08.752Z,1.00
2023-04-04T11:21:40.710Z,1.00
2023-04-04T11:23:22.921Z,0.70
2023-04-04T11:25:01.305Z,0.80
2023-04-04T11:26:33.069Z,0.70
2023-04-04T11:28:25.743Z,0.57
2023-04-04T11:29:58.994Z,0.80
2023-04-04T11:31:41.006Z,0.50
2023-04-04T11:33:13.484Z,0.80
2023-04-04T11:34:45.600Z,0.98
2023-04-04T11:36:41.641Z,0.60
2023-04-04T11:38:16.256Z,0.70
2023-04-04T11:39:56.872Z,0.82
2023-04-04T11:41:45.255Z,0.55
2023-04-04T11:43:20.490Z,0.52
2023-04-04T11:44:52.256Z,0.70
2023-04-04T11:46:29.914Z,0.68
2023-04-04T11:48:05.154Z,0.73
2023-04-04T11:49:39.824Z,0.75
2023-04-04T11:51:12.023Z,0.77
2023-04-04T11:52:43.848Z,0.70
2023-04-04T11:54:18.581Z,0.73
2023-04-04T11:55:51.448Z,0.80
2023-04-04T11:57:23.496Z,0.77
2023-04-04T11:59:08.791Z,0.93
2023-04-04T12:00:44.314Z,0.68
2023-04-04T12:02:20.554Z,0.80
2023-04-04T12:03:52.823Z,0.73
2023-04-04T12:05:25.139Z,0.50
2023-04-04T12:06:57.152Z,0.80
2023-04-04T12:08:28.995Z,0.50
2023-04-04T12:10:01.509Z,0.60
2023-04-04T12:11:37.403Z,0.85
2023-04-04T12:13:10.171Z,0.57
2023-04-04T12:14:42.605Z,0.60
2023-04-04T12:16:14.508Z,0.55
2023-04-04T12:17:48.713Z,0.70
2023-04-04T12:19:22.800Z,0.63
2023-04-04T12:20:56.959Z,0.70
2023-04-04T12:22:35.148Z,0.60
2023-04-04T12:24:09.106Z,1.00
2023-04-04T12:25:44.415Z,0.70
2023-04-04T12:27:16.450Z,0.60
2023-04-04T12:28:49.236Z,0.73
2023-04-04T12:30:21.882Z,0.77
2023-04-04T12:31:55.653Z,0.50
2023-04-04T12:33:28.219Z,0.80
2023-04-04T12:35:01.539Z,0.50
2023-04-04T12:36:35.514Z,1.00
2023-04-04T12:38:08.564Z,1.20
2023-04-04T12:39:46.511Z,0.90
2023-04-04T12:41:19.823Z,0.90
2023-04-04T12:42:52.124Z,0.70
2023-04-04T12:44:36.266Z,0.70
2023-04-04T12:46:08.542Z,0.50
2023-04-04T12:47:52.174Z,0.52
2023-04-04T12:49:24.256Z,0.73
2023-04-04T12:50:58.203Z,0.80
2023-04-04T12:52:32.675Z,0.60
2023-04-04T12:54:06.842Z,0.63
2023-04-04T12:55:38.875Z,0.93
2023-04-04T12:57:12.759Z,0.50
2023-04-04T12:58:48.514Z,0.57
2023-04-04T13:00:21.832Z,0.50
2023-04-04T13:01:53.943Z,0.77
2023-04-04T13:03:27.773Z,0.50
2023-04-04T13:05:00.290Z,0.60
2023-04-04T13:06:33.401Z,0.60
2023-04-04T13:08:07.421Z,0.60
2023-04-04T13:09:52.744Z,0.60
2023-04-04T13:11:25.087Z,0.57
2023-04-04T13:13:02.583Z,0.50
2023-04-04T13:15:00.260Z,0.60
2023-04-04T13:16:37.370Z,0.47
2023-04-04T13:18:18.293Z,0.63
2023-04-04T13:19:50.673Z,0.43
2023-04-04T13:21:23.184Z,0.50
2023-04-04T13:22:58.528Z,0.43
2023-04-04T13:24:30.536Z,0.70
2023-04-04T13:26:04.364Z,0.50
2023-04-04T13:27:36.910Z,0.40
2023-04-04T13:29:08.689Z,0.52
2023-04-04T13:30:49.918Z,0.40
2023-04-04T13:32:22.405Z,0.60
2023-04-04T13:33:54.214Z,0.50
2023-04-04T13:35:27.220Z,0.43
2023-04-04T13:36:59.060Z,0.60
2023-04-04T13:38:30.917Z,0.77
2023-04-04T13:40:02.711Z,0.52
2023-04-04T13:41:34.518Z,0.40
2023-04-04T13:43:06.779Z,0.52
2023-04-04T13:44:38.562Z,0.50
2023-04-04T13:46:10.533Z,0.50
2023-04-04T13:47:42.379Z,0.50
2023-04-04T13:49:14.400Z,0.30
2023-04-04T13:50:51.491Z,0.57
2023-04-04T13:52:23.952Z,0.57
2023-04-04T13:53:55.957Z,0.52
2023-04-04T13:55:28.121Z,0.60
2023-04-04T13:56:59.915Z,0.60
2023-04-04T13:58:31.694Z,0.60
2023-04-04T14:00:05.753Z,0.47
2023-04-04T14:01:41.531Z,0.60
2023-04-04T14:03:13.440Z,0.57
2023-04-04T14:04:45.339Z,0.50
2023-04-04T14:06:17.218Z,0.50
2023-04-04T14:07:49.167Z,0.68
2023-04-04T14:09:21.050Z,0.43
2023-04-04T14:10:52.850Z,0.65
2023-04-04T14:12:24.624Z,0.85
2023-04-04T14:13:56.721Z,0.52
2023-04-04T14:15:29.158Z,0.40
2023-04-04T14:17:01.144Z,0.45
2023-04-04T14:18:34.638Z,0.50
2023-04-04T14:20:08.060Z,0.40
2023-04-04T14:21:39.920Z,0.47
2023-04-04T14:23:11.689Z,0.43
2023-04-04T14:24:43.453Z,0.60
2023-04-04T14:26:16.150Z,0.50
2023-04-04T14:27:48.059Z,0.40
2023-04-04T14:29:19.867Z,0.40
2023-04-04T14:30:51.889Z,0.60
2023-04-04T14:32:23.864Z,0.50
2023-04-04T14:33:55.661Z,0.32
2023-04-04T14:35:27.417Z,0.40
2023-04-04T14:36:59.814Z,0.43
2023-04-04T14:38:32.102Z,0.65
2023-04-04T14:40:05.567Z,0.40
2023-04-04T14:41:37.354Z,0.70
2023-04-04T14:43:09.751Z,0.50
2023-04-04T14:44:42.424Z,0.45
2023-04-04T14:46:14.229Z,0.55
2023-04-04T14:47:46.210Z,0.45
2023-04-04T14:49:18.161Z,0.43
2023-04-04T14:50:49.959Z,0.52
2023-04-04T14:52:21.827Z,0.50
2023-04-04T14:53:53.821Z,0.63
2023-04-04T14:55:25.684Z,0.40
2023-04-04T14:56:58.173Z,0.40
2023-04-04T14:58:29.979Z,0.50
2023-04-04T15:00:01.781Z,0.50
2023-04-04T15:01:33.695Z,0.77
2023-04-04T15:03:07.347Z,0.70
2023-04-04T15:04:39.645Z,0.40
2023-04-04T15:06:11.647Z,0.50
2023-04-04T15:07:46.459Z,0.90
2023-04-04T15:09:18.252Z,0.80
2023-04-04T15:10:50.044Z,0.88
2023-04-04T15:12:21.857Z,0.70
2023-04-04T15:13:53.693Z,0.40
2023-04-04T15:15:26.777Z,0.40
2023-04-04T15:16:58.655Z,0.50
2023-04-04T15:18:30.594Z,0.50
2023-04-04T15:20:02.541Z,0.43
2023-04-04T15:21:34.323Z,0.52
2023-04-04T15:23:06.610Z,0.50
2023-04-04T15:24:38.660Z,0.45
2023-04-04T15:26:10.877Z,0.40
2023-04-04T15:27:42.681Z,0.43
2023-04-04T15:29:15.828Z,0.50
2023-04-04T15:30:47.626Z,0.40
2023-04-04T15:32:19.426Z,0.50
2023-04-04T15:33:51.228Z,0.40
2023-04-04T15:35:23.392Z,0.30
2023-04-04T15:36:57.994Z,0.40
2023-04-04T15:38:29.890Z,0.65
2023-04-04T15:40:01.671Z,0.70
2023-04-04T15:41:33.620Z,0.43
2023-04-04T15:43:06.059Z,0.50
2023-04-04T15:44:37.870Z,0.40
2023-04-04T15:46:09.672Z,0.50
2023-04-04T15:47:42.626Z,0.50
2023-04-04T15:49:15.241Z,0.40
2023-04-04T15:50:47.028Z,0.50
2023-04-04T15:52:18.821Z,0.40
2023-04-04T15:53:54.409Z,0.43
2023-04-04T15:55:27.345Z,0.40
2023-04-04T15:56:59.157Z,0.50
2023-04-04T15:58:31.144Z,0.60
2023-04-04T16:00:03.694Z,0.60
2023-04-04T16:01:40.979Z,0.52
2023-04-04T16:03:14.583Z,0.40
2023-04-04T16:04:46.465Z,0.40
2023-04-04T16:06:18.287Z,0.50
2023-04-04T16:07:50.084Z,0.30
2023-04-04T16:09:21.964Z,0.43
2023-04-04T16:10:53.794Z,0.30
2023-04-04T16:12:26.201Z,0.50
2023-04-04T16:13:58.206Z,0.47
2023-04-04T16:15:30.179Z,0.30
2023-04-04T16:17:05.492Z,0.50
2023-04-04T16:18:37.502Z,0.38
2023-04-04T16:20:09.869Z,0.43
2023-04-04T16:21:42.120Z,0.40
2023-04-04T16:23:14.481Z,0.38
2023-04-04T16:24:46.424Z,0.70
2023-04-04T16:26:18.248Z,0.55
2023-04-04T16:27:50.008Z,0.40
2023-04-04T16:29:21.887Z,0.40
2023-04-04T16:30:53.824Z,0.50
2023-04-04T16:32:25.758Z,0.50
2023-04-04T16:33:58.833Z,0.40
2023-04-04T16:35:32.784Z,0.40
2023-04-04T16:37:04.602Z,0.43
2023-04-04T16:38:36.425Z,0.40
2023-04-04T16:40:08.813Z,0.40
2023-04-04T16:41:41.164Z,0.50
2023-04-04T16:43:13.024Z,0.47
2023-04-04T16:44:47.058Z,0.30
2023-04-04T16:46:19.482Z,0.40
2023-04-04T16:47:51.822Z,0.50
2023-04-04T16:49:23.753Z,0.57
2023-04-04T16:50:56.547Z,0.60
2023-04-04T16:52:28.419Z,0.40
2023-04-04T16:54:00.263Z,0.38
2023-04-04T16:55:32.063Z,0.50
2023-04-04T16:57:03.908Z,0.40
2023-04-04T16:58:35.934Z,0.43
2023-04-04T17:00:10.173Z,0.40
2023-04-04T17:01:42.024Z,0.60
2023-04-04T17:03:13.903Z,0.55
2023-04-04T17:04:45.855Z,0.60
2023-04-04T17:06:17.910Z,0.60
2023-04-04T17:07:49.743Z,0.60
2023-04-04T17:09:21.927Z,0.47
2023-04-04T17:10:54.003Z,0.40
2023-04-04T17:12:25.808Z,0.40
2023-04-04T17:13:58.240Z,0.30
2023-04-04T17:15:30.349Z,0.25
2023-04-04T17:17:02.257Z,0.30
2023-04-04T17:18:34.496Z,0.70
2023-04-04T17:20:06.903Z,0.50
2023-04-04T17:21:38.761Z,0.50
2023-04-04T17:23:11.132Z,0.50
2023-04-04T17:24:43.128Z,0.60
2023-04-04T17:26:14.940Z,0.75
2023-04-04T17:27:46.892Z,0.80
2023-04-04T17:29:20.874Z,0.88
2023-04-04T17:30:52.929Z,0.80
2023-04-04T17:32:24.722Z,0.70
2023-04-04T17:33:56.578Z,0.75
2023-04-04T17:35:28.448Z,0.65
2023-04-04T17:37:00.298Z,0.75
2023-04-04T17:38:32.141Z,1.13
2023-04-04T17:40:05.544Z,1.50
2023-04-04T17:41:37.871Z,1.90
2023-04-04T17:43:09.700Z,2.10
2023-04-04T17:44:41.536Z,2.08
2023-04-04T17:46:13.473Z,2.33
2023-04-04T17:47:46.375Z,2.45
2023-04-04T17:49:20.361Z,2.15
2023-04-04T17:50:53.243Z,2.10
2023-04-04T17:52:25.073Z,2.00
2023-04-04T17:53:56.882Z,1.60
2023-04-04T17:55:29.447Z,2.03
2023-04-04T17:57:03.490Z,3.40
2023-04-04T17:58:35.573Z,2.92
2023-04-04T18:00:08.041Z,2.92
2023-04-04T18:01:40.880Z,2.60
2023-04-04T18:03:13.180Z,2.08
2023-04-04T18:04:47.319Z,1.95
2023-04-04T18:06:19.359Z,2.00
2023-04-04T18:07:51.416Z,1.95
2023-04-04T18:09:23.587Z,1.90
2023-04-04T18:10:57.682Z,1.95
2023-04-04T18:12:30.515Z,1.48
2023-04-04T18:14:04.117Z,1.58
2023-04-04T18:15:36.262Z,1.27
2023-04-04T18:17:09.141Z,1.85
2023-04-04T18:18:41.190Z,2.45
2023-04-04T18:20:18.464Z,2.08
2023-04-04T18:22:02.680Z,1.98
2023-04-04T18:23:34.488Z,2.30
2023-04-04T18:25:07.449Z,2.05
2023-04-04T18:26:39.510Z,1.80
2023-04-04T18:28:11.430Z,1.80
2023-04-04T18:29:43.330Z,1.58
2023-04-04T18:31:15.442Z,1.77
2023-04-04T18:32:48.343Z,1.38
2023-04-04T18:34:20.243Z,1.83
2023-04-04T18:35:54.162Z,1.45
2023-04-04T18:37:26.498Z,1.60
2023-04-04T18:38:58.362Z,1.17
2023-04-04T18:40:30.161Z,1.50
2023-04-04T18:42:03.234Z,1.27
2023-04-04T18:43:35.715Z,1.20
2023-04-04T18:45:08.398Z,1.30
2023-04-04T18:46:40.668Z,1.17
2023-04-04T18:48:12.969Z,1.27
2023-04-04T18:49:44.769Z,1.30
2023-04-04T18:51:17.634Z,1.33
2023-04-04T18:52:49.563Z,1.30
2023-04-04T18:54:21.446Z,1.33
2023-04-04T18:55:53.563Z,1.33
2023-04-04T18:57:26.045Z,1.58
2023-04-04T18:58:57.906Z,1.70
2023-04-04T19:00:29.807Z,1.35
2023-04-04T19:02:01.856Z,1.42
2023-04-04T19:03:42.010Z,1.10
2023-04-04T19:05:20.915Z,1.10
2023-04-04T19:06:53.780Z,1.30
2023-04-04T19:08:26.536Z,1.10
2023-04-04T19:09:59.838Z,1.30
2023-04-04T19:11:32.190Z,1.45
2023-04-04T19:13:04.326Z,1.20
2023-04-04T19:14:36.178Z,1.27
2023-04-04T19:16:08.408Z,1.20
2023-04-04T19:17:40.555Z,1.15
2023-04-04T19:19:12.393Z,1.30
2023-04-04T19:20:44.213Z,1.13
2023-04-04T19:22:16.074Z,1.05
2023-04-04T19:23:48.055Z,1.33
2023-04-04T19:25:20.584Z,1.52
2023-04-04T19:26:52.707Z,1.45
2023-04-04T19:28:24.633Z,1.40
2023-04-04T19:29:56.611Z,1.63
2023-04-04T19:31:33.047Z,1.90
2023-04-04T19:33:09.494Z,1.88
2023-04-04T19:34:44.571Z,1.85
2023-04-04T19:36:17.260Z,1.50
2023-04-04T19:37:49.104Z,1.42
2023-04-04T19:39:23.306Z,1.30
2023-04-04T19:40:57.151Z,1.38
2023-04-04T19:42:30.597Z,1.27
2023-04-04T19:44:04.045Z,1.50
2023-04-04T19:45:54.169Z,1.25
2023-04-04T19:47:26.201Z,1.50
2023-04-04T19:48:59.483Z,1.80
2023-04-04T19:50:35.538Z,1.70
2023-04-04T19:52:09.133Z,1.55
2023-04-04T19:53:42.504Z,1.73
2023-04-04T19:55:37.947Z,2.53
2023-04-04T19:57:19.605Z,2.17
2023-04-04T19:59:01.932Z,2.13
2023-04-04T20:00:33.789Z,1.70
2023-04-04T20:02:07.201Z,1.80
2023-04-04T20:03:40.268Z,1.77
2023-04-04T20:05:32.466Z,1.65
2023-04-04T20:07:04.606Z,1.10
2023-04-04T20:08:39.362Z,1.67
2023-04-04T20:10:11.213Z,1.02
2023-04-04T20:11:42.990Z,1.17
2023-04-04T20:13:14.877Z,0.93
2023-04-04T20:14:46.665Z,1.00
2023-04-04T20:16:18.574Z,0.80
2023-04-04T20:17:50.464Z,1.10
2023-04-04T20:19:27.930Z,1.00
2023-04-04T20:21:03.883Z,1.20
2023-04-04T20:22:35.944Z,1.20
2023-04-04T20:24:08.894Z,1.40
2023-04-04T20:25:42.622Z,1.45
2023-04-04T20:27:24.212Z,1.65
2023-04-04T20:28:56.041Z,2.10
2023-04-04T20:30:27.847Z,2.67
2023-04-04T20:32:01.776Z,3.03
2023-04-04T20:33:36.910Z,3.05
2023-04-04T20:35:28.277Z,2.70
2023-04-04T20:37:05.392Z,2.08
2023-04-04T20:38:41.790Z,1.77
2023-04-04T20:40:34.166Z,1.25
2023-04-04T20:42:38.272Z,1.45
2023-04-04T20:44:19.296Z,1.20
2023-04-04T20:45:51.266Z,1.20
2023-04-04T20:47:44.892Z,1.45
2023-04-04T20:49:20.023Z,1.33
2023-04-04T20:50:52.950Z,1.50
2023-04-04T20:52:24.765Z,1.50
2023-04-04T20:53:59.851Z,1.65